UTA559 UUWW-URML
Flight info
| Callsign | UTA559 |
|---|---|
| Flight time | N/A |
| Altitude | 37000 |
| Route | EMGAS3B EMGAS T828 OLBEG N72 GORNU B945 AMKOL AMKOL1H |
| Aircraft | B738/M-SDE2E3FGHIRWXY/LB1 |
Departure
| Time | N/A |
|---|---|
| Airport | Vnukovo International Airport (UUWW) |
Arrival
| Time | 2026-04-23 15:16 |
|---|---|
| Airport | Makhachkala Uytash International Airport (URML) |
| Time | Latitude | Longitude | Altitude | Speed | Heading |
|---|---|---|---|---|---|
| 2026-04-23 13:53 | 50.25871 | 42.32647 | 36611 ft | 467 kts | 142° |
| 2026-04-23 13:54 | 50.23426 | 42.36000 | 36618 ft | 468 kts | 142° |
| 2026-04-23 13:54 | 50.18534 | 42.42748 | 36619 ft | 468 kts | 141° |
| 2026-04-23 13:55 | 50.13679 | 42.49467 | 36626 ft | 467 kts | 141° |
| 2026-04-23 13:55 | 50.08816 | 42.56190 | 36630 ft | 467 kts | 141° |
| 2026-04-23 13:56 | 50.03954 | 42.62891 | 36637 ft | 467 kts | 142° |
| 2026-04-23 13:56 | 49.99086 | 42.69579 | 36641 ft | 467 kts | 142° |
| 2026-04-23 13:57 | 49.94212 | 42.76257 | 36646 ft | 467 kts | 142° |
| 2026-04-23 13:57 | 49.89333 | 42.82924 | 36652 ft | 467 kts | 142° |
| 2026-04-23 13:58 | 49.84448 | 42.89576 | 36657 ft | 467 kts | 142° |
| 2026-04-23 13:58 | 49.79561 | 42.96213 | 36660 ft | 467 kts | 142° |
| 2026-04-23 13:59 | 49.74672 | 43.02836 | 36665 ft | 467 kts | 142° |
| 2026-04-23 13:59 | 49.69823 | 43.09386 | 36676 ft | 467 kts | 143° |
| 2026-04-23 14:00 | 49.65777 | 43.14838 | 36673 ft | 467 kts | 143° |
| 2026-04-23 14:00 | 49.60047 | 43.22538 | 36675 ft | 468 kts | 143° |
| 2026-04-23 14:01 | 49.55141 | 43.29108 | 36690 ft | 467 kts | 143° |
| 2026-04-23 14:01 | 49.50245 | 43.35651 | 36680 ft | 467 kts | 143° |
| 2026-04-23 14:02 | 49.45843 | 43.41574 | 36689 ft | 0 kts | 143° |
| 2026-04-23 14:02 | 49.43442 | 43.44443 | 36662 ft | 467 kts | 144° |
| 2026-04-23 14:02 | 49.40981 | 43.47697 | 36718 ft | 467 kts | 142° |
| 2026-04-23 14:03 | 49.36177 | 43.54278 | 36697 ft | 468 kts | 142° |
| 2026-04-23 14:03 | 49.31280 | 43.60825 | 36703 ft | 467 kts | 143° |
| 2026-04-23 14:04 | 49.26356 | 43.67310 | 36702 ft | 467 kts | 143° |
| 2026-04-23 14:04 | 49.21495 | 43.73947 | 36744 ft | 470 kts | 141° |
| 2026-04-23 14:04 | 49.19105 | 43.77347 | 36898 ft | 469 kts | 141° |
| 2026-04-23 14:05 | 49.16726 | 43.80740 | 37075 ft | 469 kts | 141° |
| 2026-04-23 14:05 | 49.14335 | 43.84133 | 37199 ft | 469 kts | 141° |
| 2026-04-23 14:05 | 49.11933 | 43.87521 | 37287 ft | 470 kts | 142° |
| 2026-04-23 14:05 | 49.09524 | 43.90899 | 37404 ft | 470 kts | 142° |
| 2026-04-23 14:06 | 49.07114 | 43.94267 | 37526 ft | 470 kts | 142° |
| 2026-04-23 14:06 | 49.04742 | 43.97573 | 37630 ft | 470 kts | 142° |
| 2026-04-23 14:06 | 49.03139 | 43.99804 | 37687 ft | 470 kts | 142° |
| 2026-04-23 14:07 | 48.98307 | 44.06519 | 37713 ft | 471 kts | 142° |
| 2026-04-23 14:07 | 48.91037 | 44.16586 | 37728 ft | 471 kts | 142° |
| 2026-04-23 14:08 | 48.86187 | 44.23281 | 37715 ft | 471 kts | 143° |
| 2026-04-23 14:08 | 48.81343 | 44.29949 | 37714 ft | 470 kts | 143° |
| 2026-04-23 14:09 | 48.76400 | 44.36400 | 37710 ft | 465 kts | 150° |
| 2026-04-23 14:09 | 48.71058 | 44.41860 | 37731 ft | 463 kts | 152° |
| 2026-04-23 14:10 | 48.65692 | 44.47250 | 37716 ft | 463 kts | 152° |
| 2026-04-23 14:10 | 48.60350 | 44.52713 | 37724 ft | 464 kts | 151° |
| 2026-04-23 14:11 | 48.55013 | 44.58198 | 37720 ft | 464 kts | 151° |
| 2026-04-23 14:11 | 48.49704 | 44.63634 | 37713 ft | 464 kts | 151° |
| 2026-04-23 14:12 | 48.44353 | 44.69096 | 37722 ft | 465 kts | 152° |
| 2026-04-23 14:12 | 48.38998 | 44.74550 | 37712 ft | 465 kts | 152° |
| 2026-04-23 14:13 | 48.33644 | 44.79979 | 37732 ft | 464 kts | 152° |
| 2026-04-23 14:13 | 48.28284 | 44.85404 | 37738 ft | 464 kts | 152° |
| 2026-04-23 14:14 | 48.22922 | 44.90816 | 37729 ft | 465 kts | 152° |
| 2026-04-23 14:14 | 48.17554 | 44.96221 | 37733 ft | 464 kts | 152° |
| 2026-04-23 14:15 | 48.12190 | 45.01607 | 37737 ft | 464 kts | 152° |
| 2026-04-23 14:15 | 48.06825 | 45.06981 | 37740 ft | 464 kts | 152° |
| 2026-04-23 14:16 | 48.01423 | 45.12256 | 37746 ft | 461 kts | 156° |
| 2026-04-23 14:16 | 47.95761 | 45.16610 | 37751 ft | 456 kts | 160° |
| 2026-04-23 14:17 | 47.90055 | 45.20750 | 37756 ft | 456 kts | 160° |
| 2026-04-23 14:17 | 47.84374 | 45.24927 | 37757 ft | 456 kts | 160° |
| 2026-04-23 14:18 | 47.78744 | 45.29115 | 37769 ft | 455 kts | 160° |
| 2026-04-23 14:18 | 47.73082 | 45.33335 | 37765 ft | 455 kts | 160° |
| 2026-04-23 14:19 | 47.67425 | 45.37541 | 37776 ft | 454 kts | 160° |
| 2026-04-23 14:19 | 47.61773 | 45.41732 | 37777 ft | 454 kts | 160° |
| 2026-04-23 14:20 | 47.56119 | 45.45912 | 37786 ft | 454 kts | 160° |
| 2026-04-23 14:20 | 47.50460 | 45.50085 | 37780 ft | 455 kts | 160° |
| 2026-04-23 14:21 | 47.44796 | 45.54254 | 37778 ft | 455 kts | 160° |
| 2026-04-23 14:21 | 47.39130 | 45.58413 | 37786 ft | 455 kts | 160° |
| 2026-04-23 14:22 | 47.33467 | 45.62560 | 37781 ft | 452 kts | 160° |
| 2026-04-23 14:22 | 47.27865 | 45.66652 | 37790 ft | 449 kts | 160° |
| 2026-04-23 14:23 | 47.22261 | 45.70735 | 37798 ft | 450 kts | 160° |
| 2026-04-23 14:23 | 47.16642 | 45.74848 | 37797 ft | 451 kts | 160° |
| 2026-04-23 14:24 | 47.11016 | 45.78950 | 37797 ft | 452 kts | 160° |
| 2026-04-23 14:24 | 47.05369 | 45.83054 | 37801 ft | 453 kts | 160° |
| 2026-04-23 14:25 | 46.99717 | 45.87152 | 37807 ft | 453 kts | 160° |
| 2026-04-23 14:25 | 46.94063 | 45.91244 | 37806 ft | 453 kts | 160° |
| 2026-04-23 14:26 | 46.88405 | 45.95328 | 37805 ft | 453 kts | 160° |
| 2026-04-23 14:26 | 46.82744 | 45.99397 | 37807 ft | 453 kts | 160° |
| 2026-04-23 14:27 | 46.77089 | 46.03463 | 37813 ft | 453 kts | 161° |
| 2026-04-23 14:27 | 46.71431 | 46.07520 | 37817 ft | 453 kts | 161° |
| 2026-04-23 14:28 | 46.65812 | 46.11538 | 37815 ft | 453 kts | 161° |
| 2026-04-23 14:28 | 46.60158 | 46.15572 | 37818 ft | 452 kts | 161° |
| 2026-04-23 14:29 | 46.54510 | 46.19590 | 37828 ft | 452 kts | 161° |
| 2026-04-23 14:29 | 46.48862 | 46.23599 | 37834 ft | 451 kts | 161° |
| 2026-04-23 14:30 | 46.43216 | 46.27597 | 37834 ft | 452 kts | 161° |
| 2026-04-23 14:30 | 46.37570 | 46.31587 | 37836 ft | 452 kts | 161° |
| 2026-04-23 14:31 | 46.31924 | 46.35567 | 37851 ft | 451 kts | 161° |
| 2026-04-23 14:31 | 46.26278 | 46.39538 | 37851 ft | 451 kts | 161° |
| 2026-04-23 14:32 | 46.20628 | 46.43502 | 37856 ft | 451 kts | 161° |
| 2026-04-23 14:32 | 46.14975 | 46.47458 | 37862 ft | 452 kts | 161° |
| 2026-04-23 14:33 | 46.09326 | 46.51406 | 37858 ft | 452 kts | 161° |
| 2026-04-23 14:33 | 46.03670 | 46.55363 | 37861 ft | 451 kts | 161° |
| 2026-04-23 14:34 | 45.98018 | 46.59311 | 37863 ft | 451 kts | 161° |
| 2026-04-23 14:34 | 45.92371 | 46.63252 | 37863 ft | 451 kts | 161° |
| 2026-04-23 14:35 | 45.86728 | 46.67207 | 37860 ft | 451 kts | 161° |
| 2026-04-23 14:35 | 45.81092 | 46.71143 | 37863 ft | 451 kts | 161° |
| 2026-04-23 14:36 | 45.75455 | 46.75068 | 37879 ft | 450 kts | 161° |
| 2026-04-23 14:36 | 45.69816 | 46.78986 | 37869 ft | 451 kts | 161° |
| 2026-04-23 14:37 | 45.64166 | 46.82877 | 37876 ft | 451 kts | 161° |
| 2026-04-23 14:37 | 45.58508 | 46.86748 | 37867 ft | 451 kts | 161° |
| 2026-04-23 14:38 | 45.52843 | 46.90621 | 37871 ft | 451 kts | 161° |
| 2026-04-23 14:38 | 45.47183 | 46.94499 | 37874 ft | 452 kts | 161° |
| 2026-04-23 14:39 | 45.41522 | 46.98399 | 37872 ft | 452 kts | 161° |
| 2026-04-23 14:39 | 45.35858 | 47.02290 | 37872 ft | 452 kts | 161° |
| 2026-04-23 14:40 | 45.30191 | 47.06169 | 37868 ft | 452 kts | 161° |
| 2026-04-23 14:40 | 45.24515 | 47.10050 | 37878 ft | 453 kts | 161° |
| 2026-04-23 14:41 | 45.18834 | 47.13919 | 37872 ft | 453 kts | 161° |
| 2026-04-23 14:41 | 45.13186 | 47.17754 | 37870 ft | 453 kts | 161° |
| 2026-04-23 14:42 | 45.07500 | 47.21609 | 37867 ft | 453 kts | 162° |
| 2026-04-23 14:42 | 45.01598 | 47.24132 | 37871 ft | 436 kts | 179° |
| 2026-04-23 14:43 | 44.95592 | 47.25229 | 37866 ft | 436 kts | 179° |
| 2026-04-23 14:43 | 44.89576 | 47.26332 | 37867 ft | 436 kts | 179° |
| 2026-04-23 14:44 | 44.83557 | 47.27481 | 37870 ft | 436 kts | 179° |
| 2026-04-23 14:44 | 44.77544 | 47.28645 | 37865 ft | 436 kts | 179° |
| 2026-04-23 14:45 | 44.71524 | 47.29811 | 37871 ft | 437 kts | 179° |
| 2026-04-23 14:45 | 44.65500 | 47.30972 | 37871 ft | 437 kts | 179° |
| 2026-04-23 14:46 | 44.59481 | 47.32128 | 37874 ft | 437 kts | 179° |
| 2026-04-23 14:46 | 44.53451 | 47.33285 | 37868 ft | 437 kts | 179° |
| 2026-04-23 14:47 | 44.47414 | 47.34425 | 37361 ft | 436 kts | 179° |
| 2026-04-23 14:47 | 44.44442 | 47.34978 | 36758 ft | 433 kts | 179° |
| 2026-04-23 14:47 | 44.41493 | 47.35522 | 36158 ft | 431 kts | 179° |
| 2026-04-23 14:48 | 44.38636 | 47.36047 | 35529 ft | 431 kts | 179° |
| 2026-04-23 14:48 | 44.35569 | 47.36609 | 34810 ft | 432 kts | 179° |
| 2026-04-23 14:48 | 44.32591 | 47.37154 | 34184 ft | 431 kts | 179° |
| 2026-04-23 14:48 | 44.29640 | 47.37698 | 33732 ft | 425 kts | 179° |
| 2026-04-23 14:49 | 44.26722 | 47.38236 | 33244 ft | 421 kts | 179° |
| 2026-04-23 14:49 | 44.23837 | 47.38767 | 32786 ft | 416 kts | 179° |
| 2026-04-23 14:49 | 44.20980 | 47.39290 | 32318 ft | 412 kts | 179° |
| 2026-04-23 14:49 | 44.18151 | 47.39808 | 31865 ft | 408 kts | 179° |
| 2026-04-23 14:50 | 44.15351 | 47.40321 | 31408 ft | 404 kts | 179° |
| 2026-04-23 14:50 | 44.12574 | 47.40828 | 30958 ft | 401 kts | 179° |
| 2026-04-23 14:50 | 44.09853 | 47.41325 | 30512 ft | 397 kts | 179° |
| 2026-04-23 14:50 | 44.07092 | 47.41828 | 30066 ft | 394 kts | 179° |
| 2026-04-23 14:51 | 44.04417 | 47.42313 | 29628 ft | 391 kts | 179° |
| 2026-04-23 14:51 | 44.01732 | 47.42802 | 29182 ft | 388 kts | 179° |
| 2026-04-23 14:51 | 43.99062 | 47.43288 | 28730 ft | 385 kts | 179° |
| 2026-04-23 14:51 | 43.96421 | 47.43766 | 28279 ft | 382 kts | 178° |
| 2026-04-23 14:52 | 43.93801 | 47.44240 | 27833 ft | 379 kts | 178° |
| 2026-04-23 14:52 | 43.91197 | 47.44712 | 27393 ft | 376 kts | 178° |
| 2026-04-23 14:52 | 43.88611 | 47.45180 | 26954 ft | 373 kts | 178° |
| 2026-04-23 14:52 | 43.86052 | 47.45643 | 26530 ft | 370 kts | 178° |
| 2026-04-23 14:53 | 43.83505 | 47.46103 | 26090 ft | 368 kts | 178° |
| 2026-04-23 14:53 | 43.80981 | 47.46559 | 25659 ft | 365 kts | 178° |
| 2026-04-23 14:53 | 43.78471 | 47.47012 | 25229 ft | 363 kts | 177° |
| 2026-04-23 14:53 | 43.75987 | 47.47460 | 24806 ft | 360 kts | 177° |
| 2026-04-23 14:54 | 43.73500 | 47.47907 | 24378 ft | 358 kts | 177° |
| 2026-04-23 14:54 | 43.71041 | 47.48348 | 23951 ft | 355 kts | 177° |
| 2026-04-23 14:54 | 43.68598 | 47.48786 | 23538 ft | 353 kts | 177° |
| 2026-04-23 14:54 | 43.66988 | 47.49075 | 23250 ft | 351 kts | 177° |
| 2026-04-23 14:55 | 43.64571 | 47.49510 | 22848 ft | 349 kts | 177° |
| 2026-04-23 14:55 | 43.62169 | 47.49943 | 22440 ft | 347 kts | 176° |
| 2026-04-23 14:55 | 43.59804 | 47.50475 | 22148 ft | 343 kts | 173° |
| 2026-04-23 14:55 | 43.57474 | 47.51132 | 21750 ft | 342 kts | 172° |
| 2026-04-23 14:56 | 43.55145 | 47.51824 | 21369 ft | 342 kts | 172° |
| 2026-04-23 14:56 | 43.52812 | 47.52519 | 20970 ft | 345 kts | 172° |
| 2026-04-23 14:56 | 43.50442 | 47.53213 | 20572 ft | 353 kts | 172° |
| 2026-04-23 14:56 | 43.48021 | 47.53914 | 20140 ft | 354 kts | 172° |
| 2026-04-23 14:57 | 43.45620 | 47.54606 | 19685 ft | 352 kts | 172° |
| 2026-04-23 14:57 | 43.43217 | 47.55291 | 19156 ft | 352 kts | 172° |
| 2026-04-23 14:57 | 43.40827 | 47.55971 | 18726 ft | 349 kts | 172° |
| 2026-04-23 14:57 | 43.38456 | 47.56645 | 18299 ft | 347 kts | 172° |
| 2026-04-23 14:58 | 43.36103 | 47.57313 | 17880 ft | 344 kts | 172° |
| 2026-04-23 14:58 | 43.33789 | 47.58134 | 17463 ft | 345 kts | 163° |
| 2026-04-23 14:58 | 43.31647 | 47.59651 | 17057 ft | 348 kts | 151° |
| 2026-04-23 14:58 | 43.29628 | 47.61474 | 16628 ft | 347 kts | 150° |
| 2026-04-23 14:59 | 43.27623 | 47.63313 | 16185 ft | 345 kts | 150° |
| 2026-04-23 14:59 | 43.25633 | 47.65134 | 15785 ft | 343 kts | 150° |
| 2026-04-23 14:59 | 43.23650 | 47.66935 | 15380 ft | 340 kts | 150° |
| 2026-04-23 14:59 | 43.21677 | 47.68716 | 14962 ft | 339 kts | 150° |
| 2026-04-23 15:00 | 43.19712 | 47.70480 | 14536 ft | 337 kts | 151° |
| 2026-04-23 15:00 | 43.17756 | 47.72231 | 14142 ft | 335 kts | 151° |
| 2026-04-23 15:00 | 43.15814 | 47.73967 | 13731 ft | 333 kts | 151° |
| 2026-04-23 15:00 | 43.13879 | 47.75692 | 13314 ft | 331 kts | 151° |
| 2026-04-23 15:01 | 43.11953 | 47.77406 | 12915 ft | 329 kts | 151° |
| 2026-04-23 15:01 | 43.10039 | 47.79110 | 12514 ft | 327 kts | 150° |
| 2026-04-23 15:01 | 43.08132 | 47.80805 | 12105 ft | 326 kts | 151° |
| 2026-04-23 15:01 | 43.06235 | 47.82490 | 11701 ft | 324 kts | 150° |
| 2026-04-23 15:02 | 43.04348 | 47.84164 | 11305 ft | 323 kts | 150° |
| 2026-04-23 15:02 | 43.02468 | 47.85831 | 10914 ft | 321 kts | 150° |
| 2026-04-23 15:02 | 43.00600 | 47.87486 | 10534 ft | 319 kts | 150° |
| 2026-04-23 15:02 | 42.98763 | 47.89114 | 10340 ft | 311 kts | 149° |
| 2026-04-23 15:03 | 42.96979 | 47.90701 | 10193 ft | 302 kts | 149° |
| 2026-04-23 15:03 | 42.95244 | 47.92239 | 10053 ft | 293 kts | 149° |
| 2026-04-23 15:03 | 42.93556 | 47.93733 | 9826 ft | 287 kts | 149° |
| 2026-04-23 15:03 | 42.91889 | 47.95201 | 9552 ft | 281 kts | 149° |
| 2026-04-23 15:04 | 42.90242 | 47.96653 | 9250 ft | 281 kts | 149° |
| 2026-04-23 15:04 | 42.88550 | 47.97951 | 8975 ft | 277 kts | 156° |
| 2026-04-23 15:04 | 42.86805 | 47.99065 | 8689 ft | 274 kts | 156° |
| 2026-04-23 15:04 | 42.85090 | 48.00132 | 8399 ft | 274 kts | 157° |
| 2026-04-23 15:05 | 42.83361 | 48.01211 | 8084 ft | 272 kts | 156° |
| 2026-04-23 15:05 | 42.81654 | 48.02304 | 7778 ft | 270 kts | 156° |
| 2026-04-23 15:05 | 42.79955 | 48.03387 | 7498 ft | 271 kts | 156° |
| 2026-04-23 15:05 | 42.78248 | 48.04474 | 7216 ft | 270 kts | 156° |
| 2026-04-23 15:06 | 42.76551 | 48.05561 | 6929 ft | 269 kts | 155° |
| 2026-04-23 15:06 | 42.74864 | 48.06660 | 6650 ft | 268 kts | 155° |
| 2026-04-23 15:06 | 42.73188 | 48.07738 | 6408 ft | 264 kts | 156° |
| 2026-04-23 15:06 | 42.71560 | 48.08768 | 6288 ft | 254 kts | 155° |
| 2026-04-23 15:07 | 42.69985 | 48.09781 | 6182 ft | 247 kts | 155° |
| 2026-04-23 15:07 | 42.68386 | 48.10497 | 6049 ft | 240 kts | 178° |
| 2026-04-23 15:07 | 42.66795 | 48.10047 | 5952 ft | 234 kts | 211° |
| 2026-04-23 15:07 | 42.65581 | 48.08661 | 5817 ft | 227 kts | 232° |
| 2026-04-23 15:08 | 42.64866 | 48.06774 | 5662 ft | 227 kts | 255° |
| 2026-04-23 15:08 | 42.64564 | 48.04656 | 5530 ft | 231 kts | 258° |
| 2026-04-23 15:08 | 42.64213 | 48.02510 | 5365 ft | 234 kts | 256° |
| 2026-04-23 15:09 | 42.63538 | 47.98193 | 5031 ft | 233 kts | 257° |
| 2026-04-23 15:09 | 42.63208 | 47.96042 | 4871 ft | 233 kts | 259° |
| 2026-04-23 15:09 | 42.62896 | 47.93895 | 4707 ft | 232 kts | 258° |
| 2026-04-23 15:09 | 42.62575 | 47.91756 | 4532 ft | 230 kts | 261° |
| 2026-04-23 15:10 | 42.62390 | 47.90351 | 4433 ft | 228 kts | 257° |
| 2026-04-23 15:10 | 42.61849 | 47.87592 | 4218 ft | 226 kts | 259° |
| 2026-04-23 15:10 | 42.61582 | 47.85495 | 4063 ft | 225 kts | 259° |
| 2026-04-23 15:10 | 42.61505 | 47.83399 | 3875 ft | 223 kts | 286° |
| 2026-04-23 15:11 | 42.62344 | 47.81707 | 3697 ft | 218 kts | 324° |
| 2026-04-23 15:11 | 42.63628 | 47.80656 | 3521 ft | 212 kts | 328° |
| 2026-04-23 15:11 | 42.64831 | 47.79616 | 3320 ft | 198 kts | 327° |
| 2026-04-23 15:11 | 42.65950 | 47.78649 | 3134 ft | 181 kts | 328° |
| 2026-04-23 15:12 | 42.66968 | 47.77765 | 2950 ft | 167 kts | 327° |
| 2026-04-23 15:12 | 42.67925 | 47.76957 | 2805 ft | 154 kts | 328° |
| 2026-04-23 15:12 | 42.68807 | 47.76208 | 2693 ft | 150 kts | 328° |
| 2026-04-23 15:12 | 42.69696 | 47.75426 | 2513 ft | 150 kts | 327° |
| 2026-04-23 15:13 | 42.70586 | 47.74686 | 2317 ft | 150 kts | 328° |
| 2026-04-23 15:13 | 42.71460 | 47.73954 | 2130 ft | 150 kts | 327° |
| 2026-04-23 15:13 | 42.72344 | 47.73196 | 1926 ft | 151 kts | 329° |
| 2026-04-23 15:13 | 42.72939 | 47.72693 | 1789 ft | 147 kts | 325° |
| 2026-04-23 15:14 | 42.74891 | 47.70997 | 1357 ft | 149 kts | 327° |
| 2026-04-23 15:14 | 42.75768 | 47.70254 | 1152 ft | 148 kts | 327° |
| 2026-04-23 15:14 | 42.76640 | 47.69515 | 962 ft | 147 kts | 327° |
| 2026-04-23 15:15 | 42.77507 | 47.68777 | 769 ft | 147 kts | 327° |
| 2026-04-23 15:15 | 42.78214 | 47.68175 | 613 ft | 147 kts | 327° |
| 2026-04-23 15:15 | 42.79080 | 47.67438 | 413 ft | 147 kts | 327° |
| 2026-04-23 15:15 | 42.79943 | 47.66700 | 222 ft | 146 kts | 327° |
| 2026-04-23 15:16 | 42.80804 | 47.65981 | 51 ft | 145 kts | 327° |
| 2026-04-23 15:16 | 42.81611 | 47.65302 | 19 ft | 116 kts | 328° |
| 2026-04-23 15:16 | 42.82137 | 47.64856 | 20 ft | 61 kts | 328° |
| 2026-04-23 15:16 | 42.82351 | 47.64674 | 25 ft | 28 kts | 328° |
| 2026-04-23 15:17 | 42.82506 | 47.64543 | 20 ft | 24 kts | 327° |
| 2026-04-23 15:17 | 42.82628 | 47.64451 | 19 ft | 12 kts | 355° |
| 2026-04-23 15:17 | 42.82674 | 47.64446 | 19 ft | 2 kts | 320° |
| 2026-04-23 15:17 | 42.82677 | 47.64436 | 19 ft | 2 kts | 296° |
| 2026-04-23 15:18 | 42.82666 | 47.64394 | 18 ft | 7 kts | 219° |
| 2026-04-23 15:18 | 42.82613 | 47.64399 | 20 ft | 8 kts | 142° |
| 2026-04-23 15:18 | 42.82581 | 47.64469 | 20 ft | 9 kts | 126° |
| 2026-04-23 15:18 | 42.82533 | 47.64519 | 21 ft | 9 kts | 148° |
| 2026-04-23 15:19 | 42.82483 | 47.64562 | 20 ft | 8 kts | 148° |
| 2026-04-23 15:19 | 42.82434 | 47.64603 | 23 ft | 8 kts | 148° |
| 2026-04-23 15:19 | 42.82387 | 47.64643 | 21 ft | 8 kts | 148° |
| 2026-04-23 15:19 | 42.82328 | 47.64694 | 22 ft | 13 kts | 148° |
| 2026-04-23 15:20 | 42.82232 | 47.64776 | 21 ft | 20 kts | 148° |
| 2026-04-23 15:20 | 42.82098 | 47.64889 | 20 ft | 25 kts | 148° |
| 2026-04-23 15:20 | 42.81956 | 47.65010 | 18 ft | 14 kts | 146° |
| 2026-04-23 15:20 | 42.81929 | 47.65136 | 19 ft | 17 kts | 59° |
| 2026-04-23 15:21 | 42.81976 | 47.65240 | 22 ft | 12 kts | 58° |
| 2026-04-23 15:21 | 42.82016 | 47.65329 | 20 ft | 7 kts | 59° |
| 2026-04-23 15:21 | 42.82029 | 47.65387 | 20 ft | 6 kts | 94° |
| 2026-04-23 15:21 | 42.82010 | 47.65425 | 20 ft | 4 kts | 155° |
| 2026-04-23 15:22 | 42.81983 | 47.65443 | 20 ft | 4 kts | 151° |
| 2026-04-23 15:22 | 42.81958 | 47.65463 | 20 ft | 4 kts | 149° |
| 2026-04-23 15:22 | 42.81946 | 47.65491 | 22 ft | 4 kts | 89° |
| 2026-04-23 15:22 | 42.81958 | 47.65525 | 20 ft | 4 kts | 60° |
| 2026-04-23 15:23 | 42.81972 | 47.65557 | 20 ft | 4 kts | 59° |
| 2026-04-23 15:23 | 42.81975 | 47.65565 | 20 ft | 1 kts | 59° |
| 2026-04-23 15:23 | 42.81976 | 47.65567 | 20 ft | 0 kts | 59° |